createdAt,value
2019-02-20T00:00:57.625Z,2.93
2019-02-20T00:01:57.107Z,2.93
2019-02-20T00:02:56.937Z,2.92
2019-02-20T00:03:57.176Z,2.92
2019-02-20T00:04:57.287Z,2.89
2019-02-20T00:05:57.139Z,2.91
2019-02-20T00:06:57.133Z,2.9
2019-02-20T00:07:57.065Z,2.88
2019-02-20T00:08:57.202Z,2.89
2019-02-20T00:09:57.144Z,2.86
2019-02-20T00:10:57.159Z,2.83
2019-02-20T00:11:57.260Z,2.81
2019-02-20T00:12:57.275Z,2.81
2019-02-20T00:13:56.866Z,2.8
2019-02-20T00:14:57.063Z,2.8
2019-02-20T00:15:57.747Z,2.8
2019-02-20T00:16:57.821Z,2.8
2019-02-20T00:17:57.311Z,2.8
2019-02-20T00:18:56.856Z,2.79
2019-02-20T00:19:56.868Z,2.75
2019-02-20T00:20:57.217Z,2.74
2019-02-20T00:21:56.904Z,2.74
2019-02-20T00:22:56.910Z,2.74
2019-02-20T00:23:58.680Z,2.74
2019-02-20T00:24:57.352Z,2.73
2019-02-20T00:25:57.257Z,2.7
2019-02-20T00:26:56.855Z,2.64
2019-02-20T00:27:57.118Z,2.64
2019-02-20T00:28:57.008Z,2.62
2019-02-20T00:29:56.926Z,2.6
2019-02-20T00:30:57.192Z,2.6
2019-02-20T00:31:57.254Z,2.6
2019-02-20T00:32:56.866Z,2.6
2019-02-20T00:33:57.104Z,2.57
2019-02-20T00:34:57.106Z,2.56
2019-02-20T00:35:57.105Z,2.58
2019-02-20T00:36:56.813Z,2.56
2019-02-20T00:37:57.355Z,2.56
2019-02-20T00:38:57.343Z,2.55
2019-02-20T00:39:56.880Z,2.55
2019-02-20T00:40:57.620Z,2.55
2019-02-20T00:41:56.897Z,2.56
2019-02-20T00:42:56.841Z,2.55
2019-02-20T00:43:57.078Z,2.56
2019-02-20T00:44:56.949Z,2.56
2019-02-20T00:45:57.744Z,2.54
2019-02-20T00:46:57.092Z,2.52
2019-02-20T00:47:57.564Z,2.5
2019-02-20T00:48:57.218Z,2.48
2019-02-20T00:49:57.213Z,2.46
2019-02-20T00:50:57.660Z,2.48
2019-02-20T00:51:57.054Z,2.49
2019-02-20T00:52:56.939Z,2.48
2019-02-20T00:53:56.752Z,2.45
2019-02-20T00:54:56.780Z,2.44
2019-02-20T00:55:57.143Z,2.43
2019-02-20T00:56:56.881Z,2.43
2019-02-20T00:57:56.761Z,2.46
2019-02-20T00:58:57.678Z,2.47
2019-02-20T00:59:57.905Z,2.48
2019-02-20T01:00:56.941Z,2.49
2019-02-20T01:01:56.791Z,2.48
2019-02-20T01:02:57.158Z,2.5
2019-02-20T01:03:56.745Z,2.48
2019-02-20T01:04:56.769Z,2.47
2019-02-20T01:05:57.708Z,2.46
2019-02-20T01:06:56.885Z,2.44
2019-02-20T01:07:57.244Z,2.41
2019-02-20T01:08:56.785Z,2.41
2019-02-20T01:09:56.879Z,2.41
2019-02-20T01:10:56.931Z,2.39
2019-02-20T01:11:57.365Z,2.39
2019-02-20T01:12:56.804Z,2.37
2019-02-20T01:13:56.946Z,2.41
2019-02-20T01:14:56.727Z,2.41
2019-02-20T01:15:56.937Z,2.41
2019-02-20T01:16:56.930Z,2.42
2019-02-20T01:17:57.280Z,2.42
2019-02-20T01:18:58.600Z,2.41
2019-02-20T01:19:56.735Z,2.38
2019-02-20T01:20:57.680Z,2.36
2019-02-20T01:21:57.730Z,2.27
2019-02-20T01:23:00.813Z,2.26
2019-02-20T01:23:57.474Z,2.28
2019-02-20T01:24:56.751Z,2.28
2019-02-20T01:25:56.698Z,2.29
2019-02-20T01:26:56.818Z,2.25
2019-02-20T01:27:58.425Z,2.27
2019-02-20T01:28:57.152Z,2.24
2019-02-20T01:29:57.139Z,2.25
2019-02-20T01:30:56.744Z,2.25
2019-02-20T01:31:57.272Z,2.24
2019-02-20T01:32:57.084Z,2.25
2019-02-20T01:33:56.840Z,2.25
2019-02-20T01:34:56.774Z,2.28
2019-02-20T01:35:57.833Z,2.28
2019-02-20T01:36:57.019Z,2.27
2019-02-20T01:37:56.951Z,2.24
2019-02-20T01:38:56.805Z,2.24
2019-02-20T01:39:57.067Z,2.23
2019-02-20T01:40:56.849Z,2.23
2019-02-20T01:41:57.368Z,2.23
2019-02-20T01:42:57.572Z,2.21
2019-02-20T01:43:58.195Z,2.22
2019-02-20T01:44:56.964Z,2.19
2019-02-20T01:45:56.744Z,2.2
2019-02-20T01:46:58.854Z,2.21
2019-02-20T01:47:57.043Z,2.18
2019-02-20T01:48:56.879Z,2.21
2019-02-20T01:49:56.827Z,2.22
2019-02-20T01:50:56.705Z,2.23
2019-02-20T01:51:58.121Z,2.22
2019-02-20T01:52:56.775Z,2.21
2019-02-20T01:53:56.755Z,2.24
2019-02-20T01:54:57.027Z,2.21
2019-02-20T01:55:56.738Z,2.25
2019-02-20T01:56:57.528Z,2.24
2019-02-20T01:57:56.954Z,2.26
2019-02-20T01:58:56.775Z,2.23
2019-02-20T01:59:56.946Z,2.27
2019-02-20T02:00:56.891Z,2.29
2019-02-20T02:01:57.263Z,2.29
2019-02-20T02:02:57.088Z,2.29
2019-02-20T02:03:56.971Z,2.3
2019-02-20T02:04:57.620Z,2.32
2019-02-20T02:05:56.692Z,2.33
2019-02-20T02:06:57.097Z,2.35
2019-02-20T02:07:56.775Z,2.37
2019-02-20T02:08:57.121Z,2.35
2019-02-20T02:09:57.022Z,2.39
2019-02-20T02:10:56.754Z,2.39
2019-02-20T02:11:56.765Z,2.41
2019-02-20T02:12:58.485Z,2.41
2019-02-20T02:13:57.089Z,2.4
2019-02-20T02:14:56.676Z,2.4
2019-02-20T02:15:57.921Z,2.4
2019-02-20T02:16:56.621Z,2.39
2019-02-20T02:17:56.803Z,2.41
2019-02-20T02:18:56.741Z,2.4
2019-02-20T02:19:57.681Z,2.41
2019-02-20T02:20:56.783Z,2.4
2019-02-20T02:21:56.982Z,2.42
2019-02-20T02:22:57.307Z,2.4
2019-02-20T02:23:58.529Z,2.39
2019-02-20T02:24:56.744Z,2.39
2019-02-20T02:25:58.475Z,2.39
2019-02-20T02:26:57.587Z,2.4
2019-02-20T02:27:56.664Z,2.4
2019-02-20T02:28:56.944Z,2.4
2019-02-20T02:29:57.410Z,2.37
2019-02-20T02:30:56.815Z,2.39
2019-02-20T02:31:56.992Z,2.39
2019-02-20T02:32:57.649Z,2.39
2019-02-20T02:33:58.470Z,2.38
2019-02-20T02:34:56.709Z,2.38
2019-02-20T02:35:57.087Z,2.39
2019-02-20T02:36:56.692Z,2.38
2019-02-20T02:37:57.140Z,2.38
2019-02-20T02:38:56.969Z,2.32
2019-02-20T02:39:56.918Z,2.31
2019-02-20T02:40:56.670Z,2.32
2019-02-20T02:41:56.731Z,2.3
2019-02-20T02:42:56.757Z,2.27
2019-02-20T02:43:57.323Z,2.26
2019-02-20T02:44:56.606Z,2.26
2019-02-20T02:45:57.095Z,2.27
2019-02-20T02:46:57.067Z,2.24
2019-02-20T02:47:56.962Z,2.23
2019-02-20T02:48:58.617Z,2.21
2019-02-20T02:49:56.967Z,2.2
2019-02-20T02:50:56.653Z,2.21
2019-02-20T02:51:56.667Z,2.21
2019-02-20T02:52:56.874Z,2.19
2019-02-20T02:53:56.662Z,2.16
2019-02-20T02:54:58.468Z,2.14
2019-02-20T02:55:56.562Z,2.14
2019-02-20T02:56:57.035Z,2.14
2019-02-20T02:57:57.063Z,2.14
2019-02-20T02:58:58.549Z,2.15
2019-02-20T02:59:56.657Z,2.14
2019-02-20T03:00:56.601Z,2.1
2019-02-20T03:01:58.495Z,2.09
2019-02-20T03:02:56.855Z,2.05
2019-02-20T03:03:56.565Z,2.07
2019-02-20T03:04:56.985Z,2.05
2019-02-20T03:05:56.715Z,2.03
2019-02-20T03:06:56.849Z,2.02
2019-02-20T03:07:56.673Z,1.99
2019-02-20T03:08:57.268Z,2.02
2019-02-20T03:09:56.805Z,2.01
2019-02-20T03:10:57.530Z,2
2019-02-20T03:11:56.961Z,2
2019-02-20T03:12:56.799Z,1.98
2019-02-20T03:13:56.541Z,1.96
2019-02-20T03:14:56.614Z,1.97
2019-02-20T03:15:56.836Z,1.94
2019-02-20T03:16:56.759Z,1.92
2019-02-20T03:17:57.153Z,1.95
2019-02-20T03:18:57.000Z,1.95
2019-02-20T03:19:56.678Z,1.96
2019-02-20T03:20:58.444Z,1.97
2019-02-20T03:21:56.711Z,1.97
2019-02-20T03:22:56.573Z,1.96
2019-02-20T03:23:57.200Z,1.92
2019-02-20T03:24:58.441Z,1.92
2019-02-20T03:25:56.613Z,1.91
2019-02-20T03:26:56.865Z,1.89
2019-02-20T03:27:56.660Z,1.88
2019-02-20T03:28:56.623Z,1.89
2019-02-20T03:29:56.713Z,1.88
2019-02-20T03:30:56.653Z,1.86
2019-02-20T03:31:56.763Z,1.89
2019-02-20T03:32:58.207Z,1.89
2019-02-20T03:33:56.978Z,1.87
2019-02-20T03:34:56.680Z,1.83
2019-02-20T03:35:56.708Z,1.83
2019-02-20T03:36:56.690Z,1.84
2019-02-20T03:37:56.572Z,1.84
2019-02-20T03:38:56.763Z,1.85
2019-02-20T03:39:56.685Z,1.84
2019-02-20T03:40:57.106Z,1.81
2019-02-20T03:41:56.728Z,1.81
2019-02-20T03:42:58.440Z,1.75
2019-02-20T03:43:56.413Z,1.75
2019-02-20T03:44:56.338Z,1.74
2019-02-20T03:45:56.352Z,1.75
2019-02-20T03:46:56.390Z,1.72
2019-02-20T03:47:56.385Z,1.71
2019-02-20T03:48:56.561Z,1.68
2019-02-20T03:49:56.558Z,1.66
2019-02-20T03:50:56.534Z,1.64
2019-02-20T03:51:57.267Z,1.63
2019-02-20T03:52:56.674Z,1.62
2019-02-20T03:53:56.955Z,1.62
2019-02-20T03:54:57.104Z,1.6
2019-02-20T03:55:58.330Z,1.62
2019-02-20T03:56:56.583Z,1.58
2019-02-20T03:57:56.809Z,1.58
2019-02-20T03:58:57.048Z,1.58
2019-02-20T03:59:56.765Z,1.56
2019-02-20T04:00:56.842Z,1.57
2019-02-20T04:01:56.616Z,1.54
2019-02-20T04:02:56.571Z,1.53
2019-02-20T04:03:56.846Z,1.5
2019-02-20T04:04:56.845Z,1.51
2019-02-20T04:05:57.095Z,1.48
2019-02-20T04:06:56.780Z,1.43
2019-02-20T04:07:56.548Z,1.44
2019-02-20T04:08:56.714Z,1.4
2019-02-20T04:09:56.599Z,1.44
2019-02-20T04:10:56.626Z,1.43
2019-02-20T04:11:56.538Z,1.46
2019-02-20T04:12:56.884Z,1.47
2019-02-20T04:13:56.699Z,1.48
2019-02-20T04:14:56.574Z,1.48
2019-02-20T04:15:56.571Z,1.5
2019-02-20T04:16:57.546Z,1.48
2019-02-20T04:17:57.204Z,1.44
2019-02-20T04:18:56.908Z,1.44
2019-02-20T04:19:56.486Z,1.44
2019-02-20T04:20:56.565Z,1.42
2019-02-20T04:21:56.925Z,1.4
2019-02-20T04:22:57.538Z,1.39
2019-02-20T04:24:03.310Z,1.4
2019-02-20T04:24:56.830Z,1.42
2019-02-20T04:25:58.389Z,1.41
2019-02-20T04:26:56.473Z,1.39
2019-02-20T04:27:56.447Z,1.34
2019-02-20T04:28:56.870Z,1.29
2019-02-20T04:29:56.659Z,1.3
2019-02-20T04:30:56.715Z,1.32
2019-02-20T04:31:56.835Z,1.34
2019-02-20T04:32:58.862Z,1.34
2019-02-20T04:33:56.565Z,1.3
2019-02-20T04:34:56.472Z,1.29
2019-02-20T04:35:56.759Z,1.28
2019-02-20T04:36:56.670Z,1.28
2019-02-20T04:37:56.330Z,1.31
2019-02-20T04:38:56.486Z,1.32
2019-02-20T04:39:56.603Z,1.3
2019-02-20T04:40:56.461Z,1.3
2019-02-20T04:41:56.821Z,1.29
2019-02-20T04:42:58.810Z,1.27
2019-02-20T04:43:56.484Z,1.29
2019-02-20T04:44:56.839Z,1.3
2019-02-20T04:45:57.030Z,1.26
2019-02-20T04:46:56.737Z,1.28
2019-02-20T04:47:56.620Z,1.26
2019-02-20T04:48:57.211Z,1.25
2019-02-20T04:49:56.422Z,1.23
2019-02-20T04:50:56.740Z,1.21
2019-02-20T04:51:57.293Z,1.24
2019-02-20T04:52:56.862Z,1.25
2019-02-20T04:53:56.577Z,1.23
2019-02-20T04:54:56.589Z,1.23
2019-02-20T04:55:56.699Z,1.27
2019-02-20T04:56:56.557Z,1.25
2019-02-20T04:57:56.480Z,1.24
2019-02-20T04:58:56.817Z,1.25
2019-02-20T04:59:56.720Z,1.26
2019-02-20T05:00:57.420Z,1.26
2019-02-20T05:01:58.282Z,1.27
2019-02-20T05:02:56.808Z,1.24
2019-02-20T05:03:56.751Z,1.26
2019-02-20T05:04:57.991Z,1.28
2019-02-20T05:05:56.581Z,1.28
2019-02-20T05:06:56.914Z,1.28
2019-02-20T05:07:56.648Z,1.28
2019-02-20T05:08:57.982Z,1.23
2019-02-20T05:09:56.626Z,1.21
2019-02-20T05:10:56.567Z,1.21
2019-02-20T05:11:56.603Z,1.18
2019-02-20T05:12:56.580Z,1.2
2019-02-20T05:13:56.523Z,1.2
2019-02-20T05:14:56.432Z,1.2
2019-02-20T05:15:56.420Z,1.2
2019-02-20T05:16:56.955Z,1.18
2019-02-20T05:17:56.740Z,1.23
2019-02-20T05:18:56.448Z,1.2
2019-02-20T05:19:56.554Z,1.19
2019-02-20T05:20:56.833Z,1.16
2019-02-20T05:21:56.387Z,1.17
2019-02-20T05:22:56.680Z,1.13
2019-02-20T05:23:57.153Z,1.16
2019-02-20T05:24:56.541Z,1.15
2019-02-20T05:25:56.446Z,1.17
2019-02-20T05:26:56.531Z,1.22
2019-02-20T05:27:57.400Z,1.21
2019-02-20T05:28:56.506Z,1.22
2019-02-20T05:29:56.609Z,1.18
2019-02-20T05:30:56.437Z,1.2
2019-02-20T05:31:56.536Z,1.19
2019-02-20T05:32:56.504Z,1.21
2019-02-20T05:33:56.738Z,1.2
2019-02-20T05:34:57.153Z,1.17
2019-02-20T05:35:56.344Z,1.16
2019-02-20T05:36:56.401Z,1.14
2019-02-20T05:37:56.607Z,1.15
2019-02-20T05:38:56.575Z,1.16
2019-02-20T05:39:56.604Z,1.14
2019-02-20T05:40:56.349Z,1.23
2019-02-20T05:41:56.932Z,1.3
2019-02-20T05:42:56.454Z,1.34
2019-02-20T05:43:56.819Z,1.34
2019-02-20T05:44:56.613Z,1.33
2019-02-20T05:45:57.287Z,1.29
2019-02-20T05:46:56.436Z,1.25
2019-02-20T05:47:56.534Z,1.23
2019-02-20T05:48:57.821Z,1.21
2019-02-20T05:49:58.173Z,1.22
2019-02-20T05:50:56.401Z,1.23
2019-02-20T05:51:57.017Z,1.2
2019-02-20T05:52:56.328Z,1.19
2019-02-20T05:53:56.430Z,1.16
2019-02-20T05:54:56.570Z,1.15
2019-02-20T05:55:56.350Z,1.09
2019-02-20T05:56:56.548Z,1.1
2019-02-20T05:57:56.391Z,1.05
2019-02-20T05:58:56.826Z,1
2019-02-20T05:59:56.623Z,0.99
2019-02-20T06:00:56.371Z,0.93
2019-02-20T06:01:56.367Z,0.94
2019-02-20T06:02:58.183Z,0.91
2019-02-20T06:03:56.514Z,0.9
2019-02-20T06:04:56.474Z,0.9
2019-02-20T06:05:58.193Z,0.89
2019-02-20T06:06:56.351Z,0.87
2019-02-20T06:07:57.348Z,0.88
2019-02-20T06:08:57.116Z,0.85
2019-02-20T06:09:56.581Z,0.85
2019-02-20T06:10:56.400Z,0.84
2019-02-20T06:11:56.612Z,0.84
2019-02-20T06:12:56.638Z,0.89
2019-02-20T06:13:56.545Z,0.9
2019-02-20T06:14:56.372Z,0.89
2019-02-20T06:15:56.614Z,0.89
2019-02-20T06:16:58.116Z,0.86
2019-02-20T06:17:56.494Z,0.87
2019-02-20T06:18:56.300Z,0.85
2019-02-20T06:19:57.324Z,0.89
2019-02-20T06:20:56.622Z,0.86
2019-02-20T06:21:56.383Z,0.86
2019-02-20T06:22:56.683Z,0.88
2019-02-20T06:23:56.393Z,0.9
2019-02-20T06:24:56.415Z,0.92
2019-02-20T06:25:56.398Z,0.92
2019-02-20T06:26:58.138Z,0.92
2019-02-20T06:27:56.709Z,0.95
2019-02-20T06:28:56.845Z,0.99
2019-02-20T06:29:56.884Z,1
2019-02-20T06:30:57.322Z,1.01
2019-02-20T06:31:56.291Z,1.03
2019-02-20T06:32:56.461Z,1.04
2019-02-20T06:33:56.486Z,1.03
2019-02-20T06:34:56.428Z,1
2019-02-20T06:35:56.335Z,1.02
2019-02-20T06:36:56.546Z,1.02
2019-02-20T06:37:56.270Z,0.99
2019-02-20T06:38:56.689Z,1
2019-02-20T06:39:58.121Z,0.98
2019-02-20T06:40:56.952Z,1.01
2019-02-20T06:41:56.442Z,1
2019-02-20T06:42:56.775Z,1.02
2019-02-20T06:43:56.706Z,0.99
2019-02-20T06:44:56.341Z,1
2019-02-20T06:45:56.494Z,1.04
2019-02-20T06:46:56.464Z,1.03
2019-02-20T06:47:56.805Z,1.04
2019-02-20T06:48:57.032Z,1.04
2019-02-20T06:49:56.399Z,1.09
2019-02-20T06:50:56.272Z,1.09
2019-02-20T06:51:57.295Z,1.1
2019-02-20T06:52:57.470Z,1.11
2019-02-20T06:53:56.284Z,1.16
2019-02-20T06:54:57.347Z,1.19
2019-02-20T06:55:56.496Z,1.17
2019-02-20T06:56:56.605Z,1.21
2019-02-20T06:57:57.160Z,1.21
2019-02-20T06:58:56.297Z,1.26
2019-02-20T06:59:57.142Z,1.27
2019-02-20T07:00:56.319Z,1.29
2019-02-20T07:01:56.711Z,1.33
2019-02-20T07:02:56.281Z,1.33
2019-02-20T07:03:56.506Z,1.33
2019-02-20T07:04:56.276Z,1.33
2019-02-20T07:05:56.511Z,1.33
2019-02-20T07:06:56.224Z,1.34
2019-02-20T07:07:58.118Z,1.38
2019-02-20T07:08:56.759Z,1.37
2019-02-20T07:09:56.468Z,1.37
2019-02-20T07:10:57.950Z,1.41
2019-02-20T07:11:56.243Z,1.38
2019-02-20T07:12:56.250Z,1.38
2019-02-20T07:13:57.061Z,1.38
2019-02-20T07:14:57.017Z,1.36
2019-02-20T07:15:56.949Z,1.38
2019-02-20T07:16:56.341Z,1.34
2019-02-20T07:17:56.249Z,1.34
2019-02-20T07:18:58.152Z,1.34
2019-02-20T07:19:56.229Z,1.34
2019-02-20T07:20:56.270Z,1.34
2019-02-20T07:21:56.533Z,1.33
2019-02-20T07:22:56.846Z,1.33
2019-02-20T07:23:56.323Z,1.33
2019-02-20T07:25:04.033Z,1.3
2019-02-20T07:25:57.457Z,1.31
2019-02-20T07:26:56.454Z,1.28
2019-02-20T07:27:56.569Z,1.31
2019-02-20T07:28:56.466Z,1.31
2019-02-20T07:29:56.167Z,1.33
2019-02-20T07:30:56.372Z,1.3
2019-02-20T07:31:56.320Z,1.32
2019-02-20T07:32:56.209Z,1.31
2019-02-20T07:33:56.717Z,1.33
2019-02-20T07:34:56.741Z,1.32
2019-02-20T07:35:57.071Z,1.32
2019-02-20T07:36:57.168Z,1.3
2019-02-20T07:37:56.229Z,1.32
2019-02-20T07:38:56.481Z,1.34
2019-02-20T07:39:57.762Z,1.34
2019-02-20T07:40:56.309Z,1.37
2019-02-20T07:41:56.313Z,1.38
2019-02-20T07:42:56.265Z,1.39
2019-02-20T07:43:56.241Z,1.4
2019-02-20T07:44:56.216Z,1.38
2019-02-20T07:45:56.737Z,1.38
2019-02-20T07:46:56.647Z,1.4
2019-02-20T07:47:57.189Z,1.4
2019-02-20T07:48:56.246Z,1.42
2019-02-20T07:49:56.334Z,1.44
2019-02-20T07:50:56.268Z,1.45
2019-02-20T07:51:56.370Z,1.47
2019-02-20T07:52:56.248Z,1.5
2019-02-20T07:53:58.072Z,1.5
2019-02-20T07:54:56.277Z,1.52
2019-02-20T07:55:57.010Z,1.62
2019-02-20T07:56:56.565Z,1.76
2019-02-20T07:57:56.157Z,1.82
2019-02-20T07:58:56.786Z,1.82
2019-02-20T07:59:56.177Z,1.85
2019-02-20T08:00:57.170Z,1.85
2019-02-20T08:01:56.286Z,1.86
2019-02-20T08:02:56.282Z,1.84
2019-02-20T08:03:56.227Z,1.88
2019-02-20T08:04:56.439Z,1.87
2019-02-20T08:05:56.186Z,1.88
2019-02-20T08:06:56.651Z,1.9
2019-02-20T08:07:57.017Z,1.91
2019-02-20T08:08:56.183Z,1.94
2019-02-20T08:09:56.399Z,1.95
2019-02-20T08:10:56.360Z,1.96
2019-02-20T08:11:56.479Z,1.98
2019-02-20T08:12:56.561Z,2.01
2019-02-20T08:13:56.200Z,2.03
2019-02-20T08:14:56.711Z,2.05
2019-02-20T08:15:56.730Z,2.04
2019-02-20T08:16:56.338Z,2.07
2019-02-20T08:17:56.395Z,2.1
2019-02-20T08:18:56.495Z,2.14
2019-02-20T08:19:57.025Z,2.14
2019-02-20T08:20:56.802Z,2.2
2019-02-20T08:21:56.348Z,2.2
2019-02-20T08:22:56.146Z,2.22
2019-02-20T08:23:56.440Z,2.26
2019-02-20T08:24:56.147Z,2.27
2019-02-20T08:25:56.158Z,2.29
2019-02-20T08:26:56.158Z,2.32
2019-02-20T08:27:56.153Z,2.34
2019-02-20T08:28:56.109Z,2.4
2019-02-20T08:29:56.270Z,2.4
2019-02-20T08:30:56.373Z,2.42
2019-02-20T08:31:56.682Z,2.45
2019-02-20T08:32:57.412Z,2.48
2019-02-20T08:33:56.534Z,2.51
2019-02-20T08:34:56.121Z,2.52
2019-02-20T08:35:56.519Z,2.57
2019-02-20T08:36:56.209Z,2.59
2019-02-20T08:37:56.313Z,2.6
2019-02-20T08:38:56.415Z,2.64
2019-02-20T08:39:56.227Z,2.65
2019-02-20T08:40:56.147Z,2.67
2019-02-20T08:41:56.547Z,2.71
2019-02-20T08:42:57.113Z,2.74
2019-02-20T08:43:56.461Z,2.75
2019-02-20T08:44:56.731Z,2.76
2019-02-20T08:45:56.086Z,2.81
2019-02-20T08:46:56.467Z,2.83
2019-02-20T08:47:56.207Z,2.85
2019-02-20T08:48:56.298Z,2.87
2019-02-20T08:49:57.010Z,2.89
2019-02-20T08:50:56.222Z,2.92
2019-02-20T08:51:57.904Z,2.96
2019-02-20T08:52:56.526Z,2.98
2019-02-20T08:53:56.452Z,3.02
2019-02-20T08:54:56.267Z,3.07
2019-02-20T08:55:56.225Z,3.09
2019-02-20T08:56:57.893Z,3.13
2019-02-20T08:57:55.854Z,3.17
2019-02-20T08:58:55.889Z,3.2
2019-02-20T08:59:56.256Z,3.25
2019-02-20T09:00:56.261Z,3.27
2019-02-20T09:01:56.142Z,3.32
2019-02-20T09:02:56.276Z,3.34
2019-02-20T09:03:56.920Z,3.38
2019-02-20T09:04:57.070Z,3.39
2019-02-20T09:05:56.381Z,3.45
2019-02-20T09:06:56.471Z,3.45
2019-02-20T09:07:56.241Z,3.49
2019-02-20T09:08:56.322Z,3.51
2019-02-20T09:09:56.145Z,3.57
2019-02-20T09:10:56.830Z,3.59
2019-02-20T09:11:56.051Z,3.64
2019-02-20T09:12:56.691Z,3.65
2019-02-20T09:13:56.224Z,3.68
2019-02-20T09:14:56.053Z,3.71
2019-02-20T09:15:56.660Z,3.76
2019-02-20T09:16:56.595Z,3.78
2019-02-20T09:17:55.848Z,3.78
2019-02-20T09:18:56.105Z,3.82
2019-02-20T09:19:56.256Z,3.84
2019-02-20T09:20:56.295Z,3.86
2019-02-20T09:21:56.289Z,3.9
2019-02-20T09:22:56.205Z,3.94
2019-02-20T09:23:56.558Z,3.95
2019-02-20T09:24:56.986Z,3.98
2019-02-20T09:25:57.857Z,4.03
2019-02-20T09:26:57.045Z,4.07
2019-02-20T09:27:56.916Z,4.08
2019-02-20T09:28:57.219Z,4.11
2019-02-20T09:29:56.166Z,4.15
2019-02-20T09:30:57.816Z,4.2
2019-02-20T09:31:56.280Z,4.21
2019-02-20T09:32:56.165Z,4.28
2019-02-20T09:33:57.053Z,4.29
2019-02-20T09:34:56.201Z,4.34
2019-02-20T09:35:56.186Z,4.41
2019-02-20T09:36:56.835Z,4.45
2019-02-20T09:37:56.228Z,4.46
2019-02-20T09:38:56.266Z,4.49
2019-02-20T09:39:56.535Z,4.52
2019-02-20T09:40:56.228Z,4.55
2019-02-20T09:41:56.222Z,4.61
2019-02-20T09:42:56.099Z,4.66
2019-02-20T09:43:56.131Z,4.68
2019-02-20T09:44:57.802Z,4.72
2019-02-20T09:45:56.215Z,4.77
2019-02-20T09:46:56.159Z,4.8
2019-02-20T09:47:57.826Z,4.83
2019-02-20T09:48:56.680Z,4.84
2019-02-20T09:49:56.180Z,4.88
2019-02-20T09:50:56.105Z,4.9
2019-02-20T09:51:56.273Z,4.94
2019-02-20T09:52:56.287Z,5
2019-02-20T09:53:56.353Z,5.03
2019-02-20T09:54:55.959Z,5.1
2019-02-20T09:55:56.046Z,5.1
2019-02-20T09:56:56.252Z,5.13
2019-02-20T09:57:56.998Z,5.16
2019-02-20T09:58:56.237Z,5.2
2019-02-20T09:59:57.789Z,5.27
2019-02-20T10:00:56.357Z,5.34
2019-02-20T10:01:56.247Z,5.36
2019-02-20T10:02:57.484Z,5.37
2019-02-20T10:03:56.348Z,5.42
2019-02-20T10:04:57.823Z,5.47
2019-02-20T10:05:57.803Z,5.51
2019-02-20T10:06:56.168Z,5.56
2019-02-20T10:07:55.963Z,5.58
2019-02-20T10:08:56.109Z,5.63
2019-02-20T10:09:56.825Z,5.72
2019-02-20T10:10:55.958Z,5.79
2019-02-20T10:11:56.226Z,5.85
2019-02-20T10:12:56.343Z,5.85
2019-02-20T10:13:56.219Z,5.87
2019-02-20T10:14:56.128Z,5.92
2019-02-20T10:15:56.255Z,6
2019-02-20T10:16:56.256Z,6.07
2019-02-20T10:17:56.248Z,6.11
2019-02-20T10:18:56.500Z,6.17
2019-02-20T10:19:56.641Z,6.26
2019-02-20T10:20:55.900Z,6.27
2019-02-20T10:21:56.374Z,6.29
2019-02-20T10:22:55.993Z,6.3
2019-02-20T10:23:56.395Z,6.34
2019-02-20T10:24:56.190Z,6.4
2019-02-20T10:26:01.594Z,6.42
2019-02-20T10:27:01.371Z,6.47
2019-02-20T10:27:56.316Z,6.48
2019-02-20T10:28:56.123Z,6.53
2019-02-20T10:29:56.470Z,6.58
2019-02-20T10:30:56.184Z,6.61
2019-02-20T10:31:56.158Z,6.7
2019-02-20T10:32:56.483Z,6.69
2019-02-20T10:33:56.267Z,6.73
2019-02-20T10:34:56.016Z,6.78
2019-02-20T10:35:56.155Z,6.74
2019-02-20T10:36:55.959Z,6.79
2019-02-20T10:37:56.298Z,6.79
2019-02-20T10:38:56.190Z,6.79
2019-02-20T10:39:56.226Z,6.85
2019-02-20T10:40:56.562Z,6.89
2019-02-20T10:41:56.294Z,6.9
2019-02-20T10:42:56.228Z,6.92
2019-02-20T10:43:56.053Z,7
2019-02-20T10:44:57.715Z,7.02
2019-02-20T10:45:56.254Z,7.02
2019-02-20T10:46:56.245Z,7.01
2019-02-20T10:47:56.151Z,7.01
2019-02-20T10:48:55.892Z,6.98
2019-02-20T10:49:56.148Z,7.01
2019-02-20T10:50:56.712Z,7.01
2019-02-20T10:51:57.730Z,6.97
2019-02-20T10:52:56.049Z,6.98
2019-02-20T10:53:56.095Z,7.05
2019-02-20T10:54:58.410Z,7.08
2019-02-20T10:55:57.013Z,7.13
2019-02-20T10:56:56.108Z,7.17
2019-02-20T10:57:56.305Z,7.22
2019-02-20T10:58:56.226Z,7.32
2019-02-20T10:59:55.854Z,7.33
2019-02-20T11:00:56.222Z,7.38
2019-02-20T11:01:56.017Z,7.41
2019-02-20T11:02:56.244Z,7.44
2019-02-20T11:03:55.932Z,7.45
2019-02-20T11:04:56.733Z,7.43
2019-02-20T11:05:56.196Z,7.44
2019-02-20T11:06:56.696Z,7.51
2019-02-20T11:07:56.287Z,7.6
2019-02-20T11:08:57.708Z,7.7
2019-02-20T11:09:56.190Z,7.77
2019-02-20T11:10:55.879Z,7.82
2019-02-20T11:11:55.886Z,7.82
2019-02-20T11:12:56.339Z,7.78
2019-02-20T11:13:56.209Z,7.89
2019-02-20T11:14:56.125Z,7.95
2019-02-20T11:15:56.139Z,7.93
2019-02-20T11:16:56.341Z,8.02
2019-02-20T11:17:55.887Z,8.06
2019-02-20T11:18:56.815Z,8.14
2019-02-20T11:19:55.885Z,8.16
2019-02-20T11:20:56.166Z,8.22
2019-02-20T11:21:56.320Z,8.27
2019-02-20T11:22:57.668Z,8.31
2019-02-20T11:23:56.072Z,8.35
2019-02-20T11:24:56.125Z,8.39
2019-02-20T11:25:55.920Z,8.46
2019-02-20T11:26:57.319Z,8.48
2019-02-20T11:27:56.704Z,8.53
2019-02-20T11:28:56.106Z,8.62
2019-02-20T11:29:56.121Z,8.64
2019-02-20T11:30:57.182Z,8.67
2019-02-20T11:31:56.817Z,8.68
2019-02-20T11:32:56.001Z,8.73
2019-02-20T11:33:55.867Z,8.79
2019-02-20T11:34:56.170Z,8.8
2019-02-20T11:35:56.163Z,8.86
2019-02-20T11:36:56.203Z,8.87
2019-02-20T11:37:56.176Z,8.9
2019-02-20T11:38:56.379Z,8.99
2019-02-20T11:39:56.198Z,9.02
2019-02-20T11:40:56.218Z,8.94
2019-02-20T11:41:56.197Z,8.98
2019-02-20T11:42:57.623Z,9.01
2019-02-20T11:43:56.322Z,9.07
2019-02-20T11:44:55.800Z,9.14
2019-02-20T11:45:56.168Z,9.23
2019-02-20T11:46:55.962Z,9.29
2019-02-20T11:47:55.788Z,9.31
2019-02-20T11:48:55.886Z,9.38
2019-02-20T11:49:56.738Z,9.41
2019-02-20T11:50:56.885Z,9.36
2019-02-20T11:51:55.833Z,9.26
2019-02-20T11:52:55.773Z,9.26
2019-02-20T11:53:56.180Z,9.21
2019-02-20T11:54:57.489Z,9.23
2019-02-20T11:55:56.221Z,9.24
2019-02-20T11:56:56.213Z,9.29
2019-02-20T11:58:01.417Z,9.32
2019-02-20T11:58:57.608Z,9.41
2019-02-20T11:59:56.664Z,9.52
2019-02-20T12:00:56.354Z,9.6
2019-02-20T12:01:55.604Z,9.66
2019-02-20T12:02:56.081Z,9.65
2019-02-20T12:03:55.839Z,9.59
2019-02-20T12:04:56.626Z,9.68
2019-02-20T12:05:55.751Z,9.72
2019-02-20T12:06:55.935Z,9.79
2019-02-20T12:07:55.851Z,9.86
2019-02-20T12:08:55.945Z,9.92
2019-02-20T12:09:55.795Z,9.98
2019-02-20T12:10:55.841Z,10.05
2019-02-20T12:11:55.766Z,10.02
2019-02-20T12:12:56.614Z,10.03
2019-02-20T12:13:55.889Z,10.14
2019-02-20T12:14:55.587Z,10.22
2019-02-20T12:15:55.866Z,10.19
2019-02-20T12:16:55.856Z,10.24
2019-02-20T12:17:56.247Z,10.29
2019-02-20T12:18:55.846Z,10.4
2019-02-20T12:19:56.162Z,10.45
2019-02-20T12:20:55.885Z,10.51
2019-02-20T12:21:56.166Z,10.6
2019-02-20T12:22:56.481Z,10.68
2019-02-20T12:23:56.699Z,10.74
2019-02-20T12:24:59.614Z,10.8
2019-02-20T12:25:56.214Z,10.82
2019-02-20T12:26:55.759Z,10.84
2019-02-20T12:27:56.136Z,10.9
2019-02-20T12:28:57.134Z,10.91
2019-02-20T12:29:55.714Z,10.92
2019-02-20T12:30:56.379Z,10.95
2019-02-20T12:31:56.141Z,10.97
2019-02-20T12:32:56.129Z,10.95
2019-02-20T12:33:55.838Z,10.94
2019-02-20T12:34:55.884Z,10.92
2019-02-20T12:35:56.206Z,10.89
2019-02-20T12:36:55.818Z,10.8
2019-02-20T12:37:55.824Z,10.76
2019-02-20T12:38:56.005Z,10.72
2019-02-20T12:39:55.934Z,10.73
2019-02-20T12:40:55.845Z,10.74
2019-02-20T12:41:55.766Z,10.75
2019-02-20T12:42:55.934Z,10.74
2019-02-20T12:43:55.728Z,10.77
2019-02-20T12:44:58.860Z,10.79
2019-02-20T12:45:56.025Z,10.87
2019-02-20T12:46:55.741Z,10.96
2019-02-20T12:47:55.781Z,11.06
2019-02-20T12:48:55.741Z,11.19
2019-02-20T12:49:55.870Z,11.17
2019-02-20T12:50:57.535Z,11.02
2019-02-20T12:51:56.171Z,10.99
2019-02-20T12:52:56.035Z,11.04
2019-02-20T12:53:57.623Z,11.12
2019-02-20T12:54:57.542Z,11.13
2019-02-20T12:55:56.588Z,11.18
2019-02-20T12:56:56.201Z,11.26
2019-02-20T12:57:56.010Z,11.16
2019-02-20T12:58:55.898Z,11.13
2019-02-20T12:59:55.829Z,11.13
2019-02-20T13:00:55.872Z,11.21
2019-02-20T13:01:55.910Z,11.33
2019-02-20T13:02:55.842Z,11.44
2019-02-20T13:03:55.748Z,11.56
2019-02-20T13:04:55.938Z,11.68
2019-02-20T13:05:57.135Z,11.71
2019-02-20T13:06:59.979Z,11.7
2019-02-20T13:07:57.499Z,11.72
2019-02-20T13:08:56.110Z,11.71
2019-02-20T13:09:55.798Z,11.74
2019-02-20T13:10:56.979Z,11.82
2019-02-20T13:11:55.818Z,11.75
2019-02-20T13:12:55.792Z,11.82
2019-02-20T13:13:55.830Z,11.84
2019-02-20T13:14:55.713Z,11.9
2019-02-20T13:15:55.766Z,11.94
2019-02-20T13:16:55.745Z,12.01
2019-02-20T13:17:55.730Z,12
2019-02-20T13:18:55.942Z,11.99
2019-02-20T13:19:57.137Z,12.01
2019-02-20T13:20:55.806Z,11.98